Time,TemperatureF,DewpointF,PressureIn,WindDirection,WindDirectionDegrees,WindSpeedMPH,WindSpeedGustMPH,Humidity,HourlyPrecipIn,Conditions,Clouds,dailyrainin,SolarRadiationWatts/m^2,SoftwareType,DateUTC
2013-09-08 00:01:00,56.0,55.0,-100.00,South,173,0.0,3.0,98,0.00,,,0.13,0.000000,,2013-09-08 07:01:00,
2013-09-08 00:12:00,56.0,55.0,-100.00,South,173,0.0,3.0,98,0.00,,,0.13,0.000000,,2013-09-08 07:12:00,
2013-09-08 00:42:00,55.0,55.0,-100.00,SW,224,0.0,2.0,99,0.00,,,0.13,0.000000,,2013-09-08 07:42:00,
2013-09-08 00:52:00,55.0,55.0,-100.00,SW,224,0.0,2.0,99,0.00,,,0.13,0.000000,,2013-09-08 07:52:00,
2013-09-08 01:02:00,55.0,55.0,-100.00,SW,224,0.0,2.0,99,0.00,,,0.13,0.000000,,2013-09-08 08:02:00,
2013-09-08 01:11:00,55.0,55.0,-100.00,SW,224,0.0,2.0,99,0.00,,,0.13,0.000000,,2013-09-08 08:11:00,
2013-09-08 01:42:00,54.0,54.0,-100.00,SW,225,1.0,3.0,99,0.00,,,0.13,0.000000,,2013-09-08 08:42:00,
2013-09-08 01:52:00,54.0,54.0,-100.00,SW,225,1.0,3.0,99,0.00,,,0.13,0.000000,,2013-09-08 08:52:00,
2013-09-08 02:02:00,54.0,54.0,-100.00,SW,225,1.0,3.0,99,0.00,,,0.13,0.000000,,2013-09-08 09:02:00,
2013-09-08 02:11:00,54.0,54.0,-100.00,SW,225,1.0,3.0,99,0.00,,,0.13,0.000000,,2013-09-08 09:11:00,
2013-09-08 02:43:00,54.0,53.0,-100.00,ESE,114,3.0,5.0,98,0.00,,,0.13,0.000000,,2013-09-08 09:43:00,
2013-09-08 02:54:00,54.0,53.0,-100.00,ESE,114,3.0,5.0,98,0.00,,,0.13,0.000000,,2013-09-08 09:54:00,
2013-09-08 03:03:00,54.0,53.0,-100.00,ESE,114,3.0,5.0,98,0.00,,,0.13,0.000000,,2013-09-08 10:03:00,
2013-09-08 03:12:00,54.0,53.0,-100.00,ESE,114,3.0,5.0,98,0.00,,,0.13,0.000000,,2013-09-08 10:12:00,
2013-09-08 03:42:00,55.0,54.0,-100.00,South,188,3.0,5.0,97,0.00,,,0.13,0.000000,,2013-09-08 10:42:00,
2013-09-08 03:53:00,55.0,54.0,-100.00,South,188,3.0,5.0,97,0.00,,,0.13,0.000000,,2013-09-08 10:53:00,
2013-09-08 04:02:00,55.0,54.0,-100.00,South,188,3.0,5.0,97,0.00,,,0.13,0.000000,,2013-09-08 11:02:00,
2013-09-08 04:12:00,55.0,54.0,-100.00,South,188,3.0,5.0,97,0.00,,,0.13,0.000000,,2013-09-08 11:12:00,
2013-09-08 04:42:00,55.0,54.0,-100.00,South,187,1.0,5.0,97,0.00,,,0.13,0.000000,,2013-09-08 11:42:00,
2013-09-08 04:52:00,55.0,54.0,-100.00,South,187,1.0,5.0,97,0.00,,,0.13,0.000000,,2013-09-08 11:52:00,
2013-09-08 05:02:00,55.0,54.0,-100.00,South,187,1.0,5.0,97,0.00,,,0.13,0.000000,,2013-09-08 12:02:00,
2013-09-08 05:12:00,55.0,54.0,-100.00,South,187,1.0,5.0,97,0.00,,,0.13,0.000000,,2013-09-08 12:12:00,
2013-09-08 05:42:00,55.0,54.0,-100.00,East,84,0.0,3.0,98,0.00,,,0.11,0.000000,,2013-09-08 12:42:00,
2013-09-08 05:52:00,55.0,54.0,-100.00,East,84,0.0,3.0,98,0.00,,,0.11,0.000000,,2013-09-08 12:52:00,
2013-09-08 06:01:00,55.0,54.0,-100.00,East,84,0.0,3.0,98,0.00,,,0.11,0.000000,,2013-09-08 13:01:00,
2013-09-08 06:11:00,55.0,54.0,-100.00,East,84,0.0,3.0,98,0.00,,,0.11,0.000000,,2013-09-08 13:11:00,
2013-09-08 06:42:00,56.0,55.0,-100.00,South,174,3.0,4.0,98,0.00,,,0.11,0.000000,,2013-09-08 13:42:00,
2013-09-08 06:52:00,56.0,55.0,-100.00,South,174,3.0,4.0,98,0.00,,,0.11,0.000000,,2013-09-08 13:52:00,
2013-09-08 07:02:00,56.0,55.0,-100.00,South,174,3.0,4.0,98,0.00,,,0.11,0.000000,,2013-09-08 14:02:00,
2013-09-08 07:11:00,56.0,55.0,-100.00,South,174,3.0,4.0,98,0.00,,,0.11,0.000000,,2013-09-08 14:11:00,
2013-09-08 07:42:00,58.0,56.0,-100.00,SSE,152,5.0,6.0,92,0.00,,,0.11,31.000000,,2013-09-08 14:42:00,
2013-09-08 07:52:00,58.0,56.0,-100.00,SSE,152,5.0,6.0,92,0.00,,,0.11,31.000000,,2013-09-08 14:52:00,
2013-09-08 08:02:00,58.0,56.0,-100.00,SSE,152,5.0,6.0,92,0.00,,,0.11,31.000000,,2013-09-08 15:02:00,
2013-09-08 08:12:00,58.0,56.0,-100.00,SSE,152,5.0,6.0,92,0.00,,,0.11,31.000000,,2013-09-08 15:12:00,
2013-09-08 08:45:00,59.0,56.0,-100.00,SSE,148,5.0,7.0,90,0.00,,,0.11,69.000000,,2013-09-08 15:45:00,
2013-09-08 08:54:00,59.0,56.0,-100.00,SSE,148,5.0,7.0,90,0.00,,,0.11,69.000000,,2013-09-08 15:54:00,
2013-09-08 09:04:00,59.0,56.0,-100.00,SSE,148,5.0,7.0,90,0.00,,,0.11,69.000000,,2013-09-08 16:04:00,
2013-09-08 09:14:00,59.0,56.0,-100.00,SSE,148,5.0,7.0,90,0.00,,,0.11,69.000000,,2013-09-08 16:14:00,
2013-09-08 09:44:00,60.0,55.0,-100.00,SE,140,6.0,11.0,83,0.00,,,0.11,168.000000,,2013-09-08 16:44:00,
2013-09-08 09:53:00,60.0,55.0,-100.00,SE,140,6.0,11.0,83,0.00,,,0.11,168.000000,,2013-09-08 16:53:00,
2013-09-08 10:03:00,60.0,55.0,-100.00,SE,140,6.0,11.0,83,0.00,,,0.11,168.000000,,2013-09-08 17:03:00,
2013-09-08 10:12:00,60.0,55.0,-100.00,SE,140,6.0,11.0,83,0.00,,,0.11,168.000000,,2013-09-08 17:12:00,
2013-09-08 10:43:00,59.0,56.0,-100.00,SE,144,6.0,11.0,91,0.01,,,0.12,72.000000,,2013-09-08 17:43:00,
2013-09-08 10:53:00,59.0,56.0,-100.00,SE,144,6.0,11.0,91,0.01,,,0.12,72.000000,,2013-09-08 17:53:00,
2013-09-08 11:02:00,59.0,56.0,-100.00,SE,144,6.0,11.0,91,0.01,,,0.12,72.000000,,2013-09-08 18:02:00,
2013-09-08 11:13:00,59.0,56.0,-100.00,SE,144,6.0,11.0,91,0.01,,,0.12,72.000000,,2013-09-08 18:13:00,
2013-09-08 11:42:00,57.0,56.0,-100.00,SE,135,7.0,11.0,96,0.07,,,0.19,65.000000,,2013-09-08 18:42:00,
2013-09-08 11:52:00,57.0,56.0,-100.00,SE,135,7.0,11.0,96,0.07,,,0.19,65.000000,,2013-09-08 18:52:00,
2013-09-08 12:01:00,57.0,56.0,-100.00,SE,135,7.0,11.0,96,0.07,,,0.19,65.000000,,2013-09-08 19:01:00,
2013-09-08 12:12:00,57.0,56.0,-100.00,SE,135,7.0,11.0,96,0.07,,,0.19,65.000000,,2013-09-08 19:12:00,
2013-09-08 12:42:00,56.0,55.0,-100.00,SSE,159,8.0,13.0,96,0.11,,,0.30,62.000000,,2013-09-08 19:42:00,
2013-09-08 12:52:00,56.0,55.0,-100.00,SSE,159,8.0,13.0,96,0.11,,,0.30,62.000000,,2013-09-08 19:52:00,
2013-09-08 13:03:00,56.0,55.0,-100.00,SSE,159,8.0,13.0,96,0.11,,,0.30,62.000000,,2013-09-08 20:03:00,
2013-09-08 13:11:00,56.0,55.0,-100.00,SSE,159,8.0,13.0,96,0.11,,,0.30,62.000000,,2013-09-08 20:11:00,
2013-09-08 13:42:00,56.0,55.0,-100.00,SE,125,5.0,14.0,95,0.09,,,0.39,79.000000,,2013-09-08 20:42:00,
2013-09-08 13:53:00,56.0,55.0,-100.00,SE,125,5.0,14.0,95,0.09,,,0.39,79.000000,,2013-09-08 20:53:00,
2013-09-08 14:02:00,56.0,55.0,-100.00,SE,125,5.0,14.0,95,0.09,,,0.39,79.000000,,2013-09-08 21:02:00,
2013-09-08 14:12:00,56.0,55.0,-100.00,SE,125,5.0,14.0,95,0.09,,,0.39,79.000000,,2013-09-08 21:12:00,
2013-09-08 14:44:00,58.0,56.0,-100.00,SE,126,4.0,9.0,94,0.03,,,0.42,180.000000,,2013-09-08 21:44:00,
2013-09-08 14:54:00,58.0,56.0,-100.00,SE,126,4.0,9.0,94,0.03,,,0.42,180.000000,,2013-09-08 21:54:00,
2013-09-08 15:04:00,58.0,56.0,-100.00,SE,126,4.0,9.0,94,0.03,,,0.42,180.000000,,2013-09-08 22:04:00,
2013-09-08 15:13:00,58.0,56.0,-100.00,SE,126,4.0,9.0,94,0.03,,,0.42,180.000000,,2013-09-08 22:13:00,
2013-09-08 15:44:00,60.0,56.0,-100.00,ESE,109,2.0,6.0,87,0.00,,,0.42,263.000000,,2013-09-08 22:44:00,
2013-09-08 15:53:00,60.0,56.0,-100.00,ESE,109,2.0,6.0,87,0.00,,,0.42,263.000000,,2013-09-08 22:53:00,
2013-09-08 16:04:00,60.0,56.0,-100.00,ESE,109,2.0,6.0,87,0.00,,,0.42,263.000000,,2013-09-08 23:04:00,
2013-09-08 16:12:00,60.0,56.0,-100.00,ESE,109,2.0,6.0,87,0.00,,,0.42,263.000000,,2013-09-08 23:12:00,
2013-09-08 16:42:00,64.0,56.0,-100.00,NW,322,3.0,7.0,75,0.00,,,0.42,356.000000,,2013-09-08 23:42:00,
2013-09-08 16:52:00,64.0,56.0,-100.00,NW,322,3.0,7.0,75,0.00,,,0.42,356.000000,,2013-09-08 23:52:00,
2013-09-08 17:02:00,64.0,56.0,-100.00,NW,322,3.0,7.0,75,0.00,,,0.42,356.000000,,2013-09-09 00:02:00,
2013-09-08 17:11:00,64.0,56.0,-100.00,NW,322,3.0,7.0,75,0.00,,,0.42,356.000000,,2013-09-09 00:11:00,
2013-09-08 17:42:00,66.0,53.0,-100.00,SW,228,3.0,7.0,63,0.00,,,0.42,386.000000,,2013-09-09 00:42:00,
2013-09-08 17:52:00,66.0,53.0,-100.00,SW,228,3.0,7.0,63,0.00,,,0.42,386.000000,,2013-09-09 00:52:00,
2013-09-08 18:01:00,66.0,53.0,-100.00,SW,228,3.0,7.0,63,0.00,,,0.42,386.000000,,2013-09-09 01:01:00,
2013-09-08 18:12:00,66.0,53.0,-100.00,SW,228,3.0,7.0,63,0.00,,,0.42,386.000000,,2013-09-09 01:12:00,
2013-09-08 18:42:00,63.0,53.0,-100.00,ESE,107,2.0,6.0,71,0.00,,,0.42,149.000000,,2013-09-09 01:42:00,
2013-09-08 18:52:00,63.0,53.0,-100.00,ESE,107,2.0,6.0,71,0.00,,,0.42,149.000000,,2013-09-09 01:52:00,
2013-09-08 19:02:00,63.0,53.0,-100.00,ESE,107,2.0,6.0,71,0.00,,,0.42,149.000000,,2013-09-09 02:02:00,
2013-09-08 19:11:00,63.0,53.0,-100.00,ESE,107,2.0,6.0,71,0.00,,,0.42,149.000000,,2013-09-09 02:11:00,
2013-09-08 19:42:00,55.0,54.0,-100.00,WSW,245,0.0,4.0,97,0.00,,,-99.99,5.000000,,2013-09-09 02:42:00,
2013-09-08 19:53:00,55.0,54.0,-100.00,WSW,245,0.0,4.0,97,0.00,,,-99.99,5.000000,,2013-09-09 02:53:00,
2013-09-08 20:02:00,55.0,54.0,-100.00,WSW,245,0.0,4.0,97,0.00,,,-99.99,5.000000,,2013-09-09 03:02:00,
2013-09-08 20:12:00,55.0,54.0,-100.00,WSW,245,0.0,4.0,97,0.00,,,-99.99,5.000000,,2013-09-09 03:12:00,
2013-09-08 20:44:00,54.0,53.0,-100.00,North,359,2.0,3.0,98,0.00,,,0.31,0.000000,,2013-09-09 03:44:00,
2013-09-08 20:55:00,54.0,53.0,-100.00,North,359,2.0,3.0,98,0.00,,,0.31,0.000000,,2013-09-09 03:55:00,
2013-09-08 21:03:00,54.0,53.0,-100.00,North,359,2.0,3.0,98,0.00,,,0.31,0.000000,,2013-09-09 04:03:00,
2013-09-08 21:14:00,54.0,53.0,-100.00,North,359,2.0,3.0,98,0.00,,,0.31,0.000000,,2013-09-09 04:14:00,
2013-09-08 21:43:00,54.0,53.0,-100.00,WSW,238,0.0,2.0,98,0.00,,,0.31,0.000000,,2013-09-09 04:43:00,
2013-09-08 21:54:00,54.0,53.0,-100.00,WSW,238,0.0,2.0,98,0.00,,,0.31,0.000000,,2013-09-09 04:54:00,
2013-09-08 22:03:00,54.0,53.0,-100.00,WSW,238,0.0,2.0,98,0.00,,,0.31,0.000000,,2013-09-09 05:03:00,
2013-09-08 22:13:00,54.0,53.0,-100.00,WSW,238,0.0,2.0,98,0.00,,,0.31,0.000000,,2013-09-09 05:13:00,
2013-09-08 22:43:00,53.0,53.0,-100.00,South,176,1.0,4.0,99,0.00,,,0.31,0.000000,,2013-09-09 05:43:00,
2013-09-08 22:53:00,53.0,53.0,-100.00,South,176,1.0,4.0,99,0.00,,,0.31,0.000000,,2013-09-09 05:53:00,
2013-09-08 23:02:00,53.0,53.0,-100.00,South,176,1.0,4.0,99,0.00,,,0.31,0.000000,,2013-09-09 06:02:00,
2013-09-08 23:12:00,53.0,53.0,-100.00,South,176,1.0,4.0,99,0.00,,,0.31,0.000000,,2013-09-09 06:12:00,
2013-09-08 23:42:00,54.0,54.0,-100.00,WSW,243,0.0,3.0,99,0.00,,,0.31,0.000000,,2013-09-09 06:42:00,
2013-09-08 23:52:00,54.0,54.0,-100.00,WSW,243,0.0,3.0,99,0.00,,,0.31,0.000000,,2013-09-09 06:52:00,